Time;durP1;ratioP1;P1;durP2;ratioP2;P2;SDS_P1;SDS_P2;PMS_P1;PMS_P2;Temp;Humidity;BMP_temperature;BMP_pressure;BME280_temperature;BME280_humidity;BME280_pressure;Samples;Min_cycle;Max_cycle;Signal;HPM_P1;HPM_P2
2022/10/09 00:00:08;;;;;;;0.00;0.00;;;;;;;;;;1740556;28;20611;-70
2022/10/09 00:01:04;;;;;;;0.00;0.00;;;;;;;;;;1740360;28;20420;-71
2022/10/09 00:01:55;;;;;;;0.00;0.00;;;;;;;;;;1739882;28;20272;-71
2022/10/09 00:02:47;;;;;;;0.00;0.00;;;;;;;;;;1740160;28;20290;-71
2022/10/09 00:03:39;;;;;;;0.00;0.00;;;;;;;;;;1739903;28;20250;-71
2022/10/09 00:04:31;;;;;;;0.00;0.00;;;;;;;;;;1740302;28;20198;-71
2022/10/09 00:05:25;;;;;;;0.00;0.00;;;;;;;;;;1737606;28;20266;-71
2022/10/09 00:06:18;;;;;;;0.00;0.00;;;;;;;;;;1740219;28;20242;-70
2022/10/09 00:07:09;;;;;;;0.00;0.00;;;;;;;;;;1740283;28;20210;-70
2022/10/09 00:08:01;;;;;;;0.00;0.00;;;;;;;;;;1739724;28;20276;-70
2022/10/09 00:08:52;;;;;;;0.00;0.00;;;;;;;;;;1740523;28;20644;-70
2022/10/09 00:09:44;;;;;;;0.00;0.00;;;;;;;;;;1739719;28;20407;-70
2022/10/09 00:10:39;;;;;;;0.00;0.00;;;;;;;;;;1740925;28;20238;-70
2022/10/09 00:11:32;;;;;;;0.00;0.00;;;;;;;;;;1739728;28;20199;-71
2022/10/09 00:12:23;;;;;;;0.00;0.00;;;;;;;;;;1740037;28;20297;-71
2022/10/09 00:13:15;;;;;;;0.00;0.00;;;;;;;;;;1739601;28;20199;-71
2022/10/09 00:14:06;;;;;;;0.00;0.00;;;;;;;;;;1740216;28;20286;-71
2022/10/09 00:14:58;;;;;;;0.00;0.00;;;;;;;;;;1740047;28;20198;-71
2022/10/09 00:15:51;;;;;;;0.00;0.00;;;;;;;;;;1740208;28;20245;-71
2022/10/09 00:16:43;;;;;;;0.00;0.00;;;;;;;;;;1740000;28;20230;-70
2022/10/09 00:17:34;;;;;;;0.00;0.00;;;;;;;;;;1739858;28;20249;-70
2022/10/09 00:18:26;;;;;;;0.00;0.00;;;;;;;;;;1739952;28;20210;-70
2022/10/09 00:19:17;;;;;;;0.00;0.00;;;;;;;;;;1739951;28;20234;-70
2022/10/09 00:20:09;;;;;;;0.00;0.00;;;;;;;;;;1740223;28;20268;-70
2022/10/09 00:21:01;;;;;;;0.00;0.00;;;;;;;;;;1740030;28;20662;-70
2022/10/09 00:21:53;;;;;;;0.00;0.00;;;;;;;;;;1739476;28;20490;-70
2022/10/09 00:22:44;;;;;;;0.00;0.00;;;;;;;;;;1740317;28;20202;-70
2022/10/09 00:23:36;;;;;;;0.00;0.00;;;;;;;;;;1739634;28;20330;-70
2022/10/09 00:24:27;;;;;;;0.00;0.00;;;;;;;;;;1740232;28;20919;-70
2022/10/09 00:25:19;;;;;;;0.00;0.00;;;;;;;;;;1740369;28;20230;-70
2022/10/09 00:26:10;;;;;;;0.00;0.00;;;;;;;;;;1739979;28;20242;-71
2022/10/09 00:27:02;;;;;;;0.00;0.00;;;;;;;;;;1740254;28;20620;-71
2022/10/09 00:27:53;;;;;;;0.00;0.00;;;;;;;;;;1739356;28;20230;-71
2022/10/09 00:28:46;;;;;;;0.00;0.00;;;;;;;;;;1740106;28;20210;-71
2022/10/09 00:29:37;;;;;;;0.00;0.00;;;;;;;;;;1739562;28;20231;-71
2022/10/09 00:30:29;;;;;;;0.00;0.00;;;;;;;;;;1739936;28;20207;-71
2022/10/09 00:31:22;;;;;;;0.00;0.00;;;;;;;;;;1739779;28;20199;-70
2022/10/09 00:32:14;;;;;;;0.00;0.00;;;;;;;;;;1739893;28;20633;-70
2022/10/09 00:33:05;;;;;;;0.00;0.00;;;;;;;;;;1740069;28;20666;-70
2022/10/09 00:33:57;;;;;;;0.00;0.00;;;;;;;;;;1739564;28;20264;-70
2022/10/09 00:34:48;;;;;;;0.00;0.00;;;;;;;;;;1740108;28;20250;-70
2022/10/09 00:35:39;;;;;;;0.00;0.00;;;;;;;;;;1740229;28;20268;-70
2022/10/09 00:36:31;;;;;;;0.00;0.00;;;;;;;;;;1740064;28;20199;-70
2022/10/09 00:37:22;;;;;;;0.00;0.00;;;;;;;;;;1740164;28;20636;-70
2022/10/09 00:38:14;;;;;;;0.00;0.00;;;;;;;;;;1739665;28;20452;-70
2022/10/09 00:39:06;;;;;;;0.00;0.00;;;;;;;;;;1740030;28;20929;-70
2022/10/09 00:39:57;;;;;;;0.00;0.00;;;;;;;;;;1739408;28;20715;-70
2022/10/09 00:40:48;;;;;;;0.00;0.00;;;;;;;;;;1740765;28;20297;-70
2022/10/09 00:41:40;;;;;;;0.00;0.00;;;;;;;;;;1739504;28;20282;-71
2022/10/09 00:42:31;;;;;;;0.00;0.00;;;;;;;;;;1739715;28;20227;-71
2022/10/09 00:43:39;;;;;;;0.00;0.00;;;;;;;;;;1739420;28;20483;-71
2022/10/09 00:44:52;;;;;;;0.00;0.00;;;;;;;;;;1739400;28;20635;-71
2022/10/09 00:45:47;;;;;;;0.00;0.00;;;;;;;;;;1740419;28;20886;-71
2022/10/09 00:46:44;;;;;;;0.00;0.00;;;;;;;;;;1739859;28;20648;-71
2022/10/09 00:47:38;;;;;;;0.00;0.00;;;;;;;;;;1740014;28;20257;-71
2022/10/09 00:48:30;;;;;;;0.00;0.00;;;;;;;;;;1739762;28;20672;-71
2022/10/09 00:49:24;;;;;;;0.00;0.00;;;;;;;;;;1739771;28;20704;-71
2022/10/09 00:50:17;;;;;;;0.00;0.00;;;;;;;;;;1740127;28;20242;-71
2022/10/09 00:51:08;;;;;;;0.00;0.00;;;;;;;;;;1740004;28;20417;-71
2022/10/09 00:52:03;;;;;;;0.00;0.00;;;;;;;;;;1739474;28;20269;-71
2022/10/09 00:52:57;;;;;;;0.00;0.00;;;;;;;;;;1739460;28;20326;-71
2022/10/09 00:53:49;;;;;;;0.00;0.00;;;;;;;;;;1739838;28;20199;-71
2022/10/09 00:54:41;;;;;;;0.00;0.00;;;;;;;;;;1739628;28;20758;-71
2022/10/09 00:55:35;;;;;;;0.00;0.00;;;;;;;;;;1740267;28;20230;-71
2022/10/09 00:56:26;;;;;;;0.00;0.00;;;;;;;;;;1739679;28;20290;-71
2022/10/09 00:57:18;;;;;;;0.00;0.00;;;;;;;;;;1740059;28;20213;-71
2022/10/09 00:58:11;;;;;;;0.00;0.00;;;;;;;;;;1739575;28;20233;-71
2022/10/09 00:59:04;;;;;;;0.00;0.00;;;;;;;;;;1740010;28;20289;-71
2022/10/09 00:59:55;;;;;;;0.00;0.00;;;;;;;;;;1739271;28;20298;-71
2022/10/09 01:00:47;;;;;;;0.00;0.00;;;;;;;;;;1740531;28;20676;-71
2022/10/09 01:01:39;;;;;;;0.00;0.00;;;;;;;;;;1739433;28;20320;-71
2022/10/09 01:02:33;;;;;;;0.00;0.00;;;;;;;;;;1739857;28;20199;-71
2022/10/09 01:03:24;;;;;;;0.00;0.00;;;;;;;;;;1739590;28;20416;-71
2022/10/09 01:04:16;;;;;;;0.00;0.00;;;;;;;;;;1740000;28;20199;-71
2022/10/09 01:05:08;;;;;;;0.00;0.00;;;;;;;;;;1737217;28;20215;-71
2022/10/09 01:06:03;;;;;;;0.00;0.00;;;;;;;;;;1739596;28;20681;-70
2022/10/09 01:06:59;;;;;;;0.00;0.00;;;;;;;;;;1740038;28;20248;-70
2022/10/09 01:07:57;;;;;;;0.00;0.00;;;;;;;;;;1739365;28;20273;-70
2022/10/09 01:08:51;;;;;;;0.00;0.00;;;;;;;;;;1740297;28;20692;-70
2022/10/09 01:09:47;;;;;;;0.00;0.00;;;;;;;;;;1739393;28;20214;-70
2022/10/09 01:10:41;;;;;;;0.00;0.00;;;;;;;;;;1740262;28;20282;-70
2022/10/09 01:11:37;;;;;;;0.00;0.00;;;;;;;;;;1739395;28;20233;-70
2022/10/09 01:12:34;;;;;;;0.00;0.00;;;;;;;;;;1739835;28;20524;-70
2022/10/09 01:13:28;;;;;;;0.00;0.00;;;;;;;;;;1739499;28;20197;-70
2022/10/09 01:14:22;;;;;;;0.00;0.00;;;;;;;;;;1739554;28;20289;-70
2022/10/09 01:15:17;;;;;;;0.00;0.00;;;;;;;;;;1740161;28;20195;-70
2022/10/09 01:16:11;;;;;;;0.00;0.00;;;;;;;;;;1739410;28;20231;-70
2022/10/09 01:17:06;;;;;;;0.00;0.00;;;;;;;;;;1739810;28;20269;-71
2022/10/09 01:18:05;;;;;;;0.00;0.00;;;;;;;;;;1739494;28;20314;-70
2022/10/09 01:18:57;;;;;;;0.00;0.00;;;;;;;;;;1740092;28;20298;-71
2022/10/09 01:19:57;;;;;;;0.00;0.00;;;;;;;;;;1739268;28;20199;-70
2022/10/09 01:20:49;;;;;;;0.00;0.00;;;;;;;;;;1740406;28;20656;-70
2022/10/09 01:21:43;;;;;;;0.00;0.00;;;;;;;;;;1739186;28;20733;-70
2022/10/09 01:22:42;;;;;;;0.00;0.00;;;;;;;;;;1739805;28;20215;-70
2022/10/09 01:23:56;;;;;;;0.00;0.00;;;;;;;;;;1738693;28;20540;-70
2022/10/09 01:24:50;;;;;;;0.00;0.00;;;;;;;;;;1739924;28;20248;-70
2022/10/09 01:25:46;;;;;;;0.00;0.00;;;;;;;;;;1739835;28;20522;-70
2022/10/09 01:26:54;;;;;;;0.00;0.00;;;;;;;;;;1739430;28;20238;-71
2022/10/09 01:27:46;;;;;;;0.00;0.00;;;;;;;;;;1739096;28;20653;-71
2022/10/09 01:28:38;;;;;;;0.00;0.00;;;;;;;;;;1739614;28;20206;-71
2022/10/09 01:29:33;;;;;;;0.00;0.00;;;;;;;;;;1739322;28;20698;-71
2022/10/09 01:30:24;;;;;;;0.00;0.00;;;;;;;;;;1740191;28;20195;-71
2022/10/09 01:31:17;;;;;;;0.00;0.00;;;;;;;;;;1739731;28;20442;-70
2022/10/09 01:32:10;;;;;;;0.00;0.00;;;;;;;;;;1739002;28;20302;-70
2022/10/09 01:33:02;;;;;;;0.00;0.00;;;;;;;;;;1739743;28;20211;-70
2022/10/09 01:33:53;;;;;;;0.00;0.00;;;;;;;;;;1739253;28;20718;-70
2022/10/09 01:34:46;;;;;;;0.00;0.00;;;;;;;;;;1739486;28;20220;-70
2022/10/09 01:35:38;;;;;;;0.00;0.00;;;;;;;;;;1739990;28;20230;-70
2022/10/09 01:36:31;;;;;;;0.00;0.00;;;;;;;;;;1739542;28;20218;-70
2022/10/09 01:37:23;;;;;;;0.00;0.00;;;;;;;;;;1739730;28;20249;-70
2022/10/09 01:38:15;;;;;;;0.00;0.00;;;;;;;;;;1739111;28;20191;-70
2022/10/09 01:39:07;;;;;;;0.00;0.00;;;;;;;;;;1740067;28;20633;-70
2022/10/09 01:40:00;;;;;;;0.00;0.00;;;;;;;;;;1739155;28;20206;-70
2022/10/09 01:40:52;;;;;;;0.00;0.00;;;;;;;;;;1740290;28;20242;-70
2022/10/09 01:41:44;;;;;;;0.00;0.00;;;;;;;;;;1739000;28;20253;-70
2022/10/09 01:42:36;;;;;;;0.00;0.00;;;;;;;;;;1738583;28;20594;-70
2022/10/09 01:43:29;;;;;;;0.00;0.00;;;;;;;;;;1739646;28;20228;-70
2022/10/09 01:44:21;;;;;;;0.00;0.00;;;;;;;;;;1739258;28;20242;-70
2022/10/09 01:45:13;;;;;;;0.00;0.00;;;;;;;;;;1740060;28;20625;-70
2022/10/09 01:46:18;;;;;;;0.00;0.00;;;;;;;;;;1739072;28;20268;-70
2022/10/09 01:47:11;;;;;;;0.00;0.00;;;;;;;;;;1739578;28;20550;-70
2022/10/09 01:48:02;;;;;;;0.00;0.00;;;;;;;;;;1738844;28;20314;-70
2022/10/09 01:48:58;;;;;;;0.00;0.00;;;;;;;;;;1739804;28;20541;-70
2022/10/09 01:49:52;;;;;;;0.00;0.00;;;;;;;;;;1739142;28;20200;-70
2022/10/09 01:50:46;;;;;;;0.00;0.00;;;;;;;;;;1739892;28;20222;-70
2022/10/09 01:51:40;;;;;;;0.00;0.00;;;;;;;;;;1739233;28;20293;-70
2022/10/09 01:52:35;;;;;;;0.00;0.00;;;;;;;;;;1738781;28;20199;-70
2022/10/09 01:53:27;;;;;;;0.00;0.00;;;;;;;;;;1725755;28;20212;-70
2022/10/09 01:54:22;;;;;;;0.00;0.00;;;;;;;;;;1725732;28;20201;-70
2022/10/09 01:55:18;;;;;;;0.00;0.00;;;;;;;;;;1733358;28;20241;-70
2022/10/09 01:56:14;;;;;;;0.00;0.00;;;;;;;;;;1732362;28;20279;-70
2022/10/09 01:57:07;;;;;;;0.00;0.00;;;;;;;;;;1732682;28;20250;-70
2022/10/09 01:58:04;;;;;;;0.00;0.00;;;;;;;;;;1731990;28;20238;-70
2022/10/09 01:58:56;;;;;;;0.00;0.00;;;;;;;;;;1732821;28;20298;-70
2022/10/09 01:59:49;;;;;;;0.00;0.00;;;;;;;;;;1732358;28;20279;-70
2022/10/09 02:00:42;;;;;;;0.00;0.00;;;;;;;;;;1732871;28;20235;-70
2022/10/09 02:01:36;;;;;;;0.00;0.00;;;;;;;;;;1732500;28;20466;-70
2022/10/09 02:02:27;;;;;;;0.00;0.00;;;;;;;;;;1732306;28;20235;-70
2022/10/09 02:03:20;;;;;;;0.00;0.00;;;;;;;;;;1732236;28;20231;-70
2022/10/09 02:04:12;;;;;;;0.00;0.00;;;;;;;;;;1732602;28;20323;-70
2022/10/09 02:05:05;;;;;;;0.00;0.00;;;;;;;;;;1725803;28;20208;-70
2022/10/09 02:05:57;;;;;;;0.00;0.00;;;;;;;;;;1725942;28;20523;-71
2022/10/09 02:06:49;;;;;;;0.00;0.00;;;;;;;;;;1725677;28;20390;-71
2022/10/09 02:07:40;;;;;;;0.00;0.00;;;;;;;;;;1725891;28;20231;-71
2022/10/09 02:08:33;;;;;;;0.00;0.00;;;;;;;;;;1725617;28;20234;-71
2022/10/09 02:09:25;;;;;;;0.00;0.00;;;;;;;;;;1725872;28;20592;-71
2022/10/09 02:10:17;;;;;;;0.00;0.00;;;;;;;;;;1726123;28;20677;-71
2022/10/09 02:11:10;;;;;;;0.00;0.00;;;;;;;;;;1725867;28;20359;-70
2022/10/09 02:12:05;;;;;;;0.00;0.00;;;;;;;;;;1725281;28;20204;-70
2022/10/09 02:12:58;;;;;;;0.00;0.00;;;;;;;;;;1725716;28;20189;-70
2022/10/09 02:13:52;;;;;;;0.00;0.00;;;;;;;;;;1725441;28;20214;-70
2022/10/09 02:14:43;;;;;;;0.00;0.00;;;;;;;;;;1725829;28;20204;-70
2022/10/09 02:15:38;;;;;;;0.00;0.00;;;;;;;;;;1726201;28;20204;-70
2022/10/09 02:16:36;;;;;;;0.00;0.00;;;;;;;;;;1725529;28;20580;-70
2022/10/09 02:17:30;;;;;;;0.10;0.10;;;;;;;;;;1725604;28;20200;-70
2022/10/09 02:18:24;;;;;;;0.00;0.00;;;;;;;;;;1725471;28;20193;-70
2022/10/09 02:19:17;;;;;;;0.00;0.00;;;;;;;;;;1725973;28;20290;-70
2022/10/09 02:20:13;;;;;;;0.00;0.00;;;;;;;;;;1725751;28;20235;-70
2022/10/09 02:21:07;;;;;;;0.00;0.00;;;;;;;;;;1725981;28;20272;-70
2022/10/09 02:22:00;;;;;;;0.00;0.00;;;;;;;;;;1725504;28;20243;-70
2022/10/09 02:22:54;;;;;;;0.00;0.00;;;;;;;;;;1725917;28;20630;-70
2022/10/09 02:23:45;;;;;;;0.00;0.00;;;;;;;;;;1725670;28;20611;-70
2022/10/09 02:24:38;;;;;;;0.00;0.00;;;;;;;;;;1725659;28;20247;-70
2022/10/09 02:25:29;;;;;;;0.00;0.00;;;;;;;;;;1726428;28;20673;-70
2022/10/09 02:26:21;;;;;;;0.00;0.00;;;;;;;;;;1725621;28;20204;-71
2022/10/09 02:27:13;;;;;;;0.00;0.00;;;;;;;;;;1726248;28;20236;-71
2022/10/09 02:28:06;;;;;;;0.00;0.00;;;;;;;;;;1725276;28;20208;-71
2022/10/09 02:28:58;;;;;;;0.00;0.00;;;;;;;;;;1725929;28;20243;-71
2022/10/09 02:29:50;;;;;;;0.00;0.00;;;;;;;;;;1725285;28;20239;-71
2022/10/09 02:30:47;;;;;;;0.00;0.00;;;;;;;;;;1726394;28;20232;-71
2022/10/09 02:31:40;;;;;;;0.00;0.00;;;;;;;;;;1725501;28;20254;-71
2022/10/09 02:32:31;;;;;;;0.00;0.00;;;;;;;;;;1725712;28;20526;-71
2022/10/09 02:33:27;;;;;;;0.00;0.00;;;;;;;;;;1732186;28;20201;-71
2022/10/09 02:34:19;;;;;;;0.00;0.00;;;;;;;;;;1732086;28;20291;-71
2022/10/09 02:35:11;;;;;;;0.00;0.00;;;;;;;;;;1733004;28;20208;-71
2022/10/09 02:36:03;;;;;;;0.00;0.00;;;;;;;;;;1732016;28;20231;-71
2022/10/09 02:36:55;;;;;;;0.00;0.00;;;;;;;;;;1732422;28;20218;-71
2022/10/09 02:37:48;;;;;;;0.00;0.00;;;;;;;;;;1732245;28;20286;-71
2022/10/09 02:38:40;;;;;;;0.00;0.00;;;;;;;;;;1732480;28;20191;-71
2022/10/09 02:39:31;;;;;;;0.00;0.00;;;;;;;;;;1732503;28;20287;-71
2022/10/09 02:40:23;;;;;;;0.00;0.00;;;;;;;;;;1732576;28;20199;-71
2022/10/09 02:41:14;;;;;;;0.00;0.00;;;;;;;;;;1732574;28;20676;-71
2022/10/09 02:42:06;;;;;;;0.00;0.00;;;;;;;;;;1731919;28;20196;-71
2022/10/09 02:42:57;;;;;;;0.00;0.00;;;;;;;;;;1732462;28;20869;-71
2022/10/09 02:43:48;;;;;;;0.00;0.00;;;;;;;;;;1732492;28;20196;-71
2022/10/09 02:44:41;;;;;;;0.00;0.00;;;;;;;;;;1731992;28;20373;-71
2022/10/09 02:45:32;;;;;;;0.00;0.00;;;;;;;;;;1732938;28;20241;-71
2022/10/09 02:46:24;;;;;;;0.00;0.00;;;;;;;;;;1731998;28;20243;-70
2022/10/09 02:47:16;;;;;;;0.00;0.00;;;;;;;;;;1732821;28;20605;-70
2022/10/09 02:48:07;;;;;;;0.00;0.00;;;;;;;;;;1729743;28;20239;-70
2022/10/09 02:48:59;;;;;;;0.00;0.00;;;;;;;;;;1725919;28;20223;-70
2022/10/09 02:49:50;;;;;;;0.00;0.00;;;;;;;;;;1725523;28;20303;-70
2022/10/09 02:50:42;;;;;;;0.00;0.00;;;;;;;;;;1725692;28;20287;-70
2022/10/09 02:51:33;;;;;;;0.00;0.00;;;;;;;;;;1725613;28;20228;-71
2022/10/09 02:52:25;;;;;;;0.00;0.00;;;;;;;;;;1725152;28;20224;-71
2022/10/09 02:53:16;;;;;;;0.00;0.00;;;;;;;;;;1737716;28;20298;-71
2022/10/09 02:54:09;;;;;;;0.00;0.00;;;;;;;;;;1740300;28;20198;-71
2022/10/09 02:55:00;;;;;;;0.00;0.00;;;;;;;;;;1740357;28;20386;-71
2022/10/09 02:55:52;;;;;;;0.00;0.00;;;;;;;;;;1740322;28;20679;-71
2022/10/09 02:56:43;;;;;;;0.00;0.00;;;;;;;;;;1740252;28;20281;-71
2022/10/09 02:57:35;;;;;;;0.00;0.00;;;;;;;;;;1741051;28;20211;-71
2022/10/09 02:58:29;;;;;;;0.00;0.00;;;;;;;;;;1740252;28;20237;-71
2022/10/09 02:59:21;;;;;;;0.00;0.00;;;;;;;;;;1741022;28;20571;-71
2022/10/09 03:00:14;;;;;;;0.00;0.00;;;;;;;;;;1740741;28;20596;-71
2022/10/09 03:01:06;;;;;;;0.00;0.00;;;;;;;;;;1740419;28;20235;-70
2022/10/09 03:01:58;;;;;;;0.00;0.00;;;;;;;;;;1740369;28;20845;-70
2022/10/09 03:02:49;;;;;;;0.00;0.00;;;;;;;;;;1740307;28;20253;-70
2022/10/09 03:03:41;;;;;;;0.00;0.00;;;;;;;;;;1740818;28;20210;-70
2022/10/09 03:04:32;;;;;;;0.00;0.00;;;;;;;;;;1740204;28;20230;-70
2022/10/09 03:05:24;;;;;;;0.00;0.00;;;;;;;;;;1738031;28;20192;-70
2022/10/09 03:06:17;;;;;;;0.00;0.00;;;;;;;;;;1740077;28;20234;-71
2022/10/09 03:07:09;;;;;;;0.00;0.00;;;;;;;;;;1740770;28;20203;-71
2022/10/09 03:08:00;;;;;;;0.00;0.00;;;;;;;;;;1740516;28;20210;-71
2022/10/09 03:08:53;;;;;;;0.00;0.00;;;;;;;;;;1738805;28;20223;-71
2022/10/09 03:09:44;;;;;;;0.00;0.00;;;;;;;;;;1738205;28;20278;-71
2022/10/09 03:10:37;;;;;;;0.00;0.00;;;;;;;;;;1739558;28;20253;-71
2022/10/09 03:11:28;;;;;;;0.00;0.00;;;;;;;;;;1738028;28;20317;-71
2022/10/09 03:12:21;;;;;;;0.00;0.00;;;;;;;;;;1746537;28;20289;-71
2022/10/09 03:13:12;;;;;;;0.00;0.00;;;;;;;;;;1747439;28;20214;-71
2022/10/09 03:14:04;;;;;;;0.00;0.00;;;;;;;;;;1747858;28;20526;-71
2022/10/09 03:14:55;;;;;;;0.00;0.00;;;;;;;;;;1745183;28;20595;-71
2022/10/09 03:15:48;;;;;;;0.00;0.00;;;;;;;;;;1734353;28;20227;-71
2022/10/09 03:16:39;;;;;;;0.00;0.00;;;;;;;;;;1739305;28;20230;-71
2022/10/09 03:17:31;;;;;;;0.00;0.00;;;;;;;;;;1740477;28;20234;-71
2022/10/09 03:18:22;;;;;;;0.00;0.00;;;;;;;;;;1740641;28;20257;-71
2022/10/09 03:19:14;;;;;;;0.00;0.00;;;;;;;;;;1740805;28;20218;-71
2022/10/09 03:20:06;;;;;;;0.00;0.00;;;;;;;;;;1740907;28;20211;-71
2022/10/09 03:20:57;;;;;;;0.00;0.00;;;;;;;;;;1740977;28;20241;-69
2022/10/09 03:21:49;;;;;;;0.00;0.00;;;;;;;;;;1740138;28;20333;-70
2022/10/09 03:22:40;;;;;;;0.00;0.00;;;;;;;;;;1740765;28;20709;-70
2022/10/09 03:23:32;;;;;;;0.00;0.00;;;;;;;;;;1740527;28;20199;-71
2022/10/09 03:24:23;;;;;;;0.00;0.00;;;;;;;;;;1739808;28;20242;-70
2022/10/09 03:25:15;;;;;;;0.00;0.00;;;;;;;;;;1741076;28;20199;-70
2022/10/09 03:26:08;;;;;;;0.00;0.00;;;;;;;;;;1740589;28;20302;-71
2022/10/09 03:27:00;;;;;;;0.00;0.00;;;;;;;;;;1740402;28;20268;-71
2022/10/09 03:27:51;;;;;;;0.00;0.00;;;;;;;;;;1740613;28;20650;-71
2022/10/09 03:28:45;;;;;;;0.00;0.00;;;;;;;;;;1740534;28;20259;-71
2022/10/09 03:29:36;;;;;;;0.00;0.00;;;;;;;;;;1740517;28;20210;-71
2022/10/09 03:30:28;;;;;;;0.00;0.00;;;;;;;;;;1741049;28;20206;-71
2022/10/09 03:31:22;;;;;;;0.00;0.00;;;;;;;;;;1740473;28;20253;-70
2022/10/09 03:32:14;;;;;;;0.00;0.00;;;;;;;;;;1740270;28;20242;-70
2022/10/09 03:33:05;;;;;;;0.00;0.00;;;;;;;;;;1740487;28;20214;-70
2022/10/09 03:33:57;;;;;;;0.00;0.00;;;;;;;;;;1740734;28;20366;-70
2022/10/09 03:34:48;;;;;;;0.00;0.00;;;;;;;;;;1740263;28;20222;-70
2022/10/09 03:35:41;;;;;;;0.00;0.00;;;;;;;;;;1741258;28;20280;-70
2022/10/09 03:36:32;;;;;;;0.00;0.00;;;;;;;;;;1740420;28;20238;-71
2022/10/09 03:37:24;;;;;;;0.00;0.00;;;;;;;;;;1740676;28;20647;-71
2022/10/09 03:38:16;;;;;;;0.00;0.00;;;;;;;;;;1740599;28;20279;-71
2022/10/09 03:39:08;;;;;;;0.00;0.00;;;;;;;;;;1740511;28;20199;-71
2022/10/09 03:39:59;;;;;;;0.00;0.00;;;;;;;;;;1740449;28;20301;-71
2022/10/09 03:40:51;;;;;;;0.00;0.00;;;;;;;;;;1741205;28;20755;-71
2022/10/09 03:41:42;;;;;;;0.00;0.00;;;;;;;;;;1740377;28;20641;-70
2022/10/09 03:42:34;;;;;;;0.00;0.00;;;;;;;;;;1740462;28;20209;-70
2022/10/09 03:43:25;;;;;;;0.00;0.00;;;;;;;;;;1740279;28;20265;-70
2022/10/09 03:44:17;;;;;;;0.00;0.00;;;;;;;;;;1740886;28;20213;-70
2022/10/09 03:45:08;;;;;;;0.00;0.00;;;;;;;;;;1740564;28;20336;-70
2022/10/09 03:46:04;;;;;;;0.00;0.00;;;;;;;;;;1740678;28;20282;-70
2022/10/09 03:46:56;;;;;;;0.00;0.00;;;;;;;;;;1740514;28;20693;-70
2022/10/09 03:47:48;;;;;;;0.00;0.00;;;;;;;;;;1740401;28;20207;-70
2022/10/09 03:48:39;;;;;;;0.03;0.03;;;;;;;;;;1740706;28;20241;-70
2022/10/09 03:49:31;;;;;;;0.00;0.00;;;;;;;;;;1740266;28;20512;-70
2022/10/09 03:50:23;;;;;;;0.00;0.00;;;;;;;;;;1741043;28;20210;-70
2022/10/09 03:51:15;;;;;;;0.00;0.00;;;;;;;;;;1740222;28;20460;-71
2022/10/09 03:52:06;;;;;;;0.00;0.00;;;;;;;;;;1740402;28;20683;-71
2022/10/09 03:52:57;;;;;;;0.00;0.00;;;;;;;;;;1740145;28;20258;-71
2022/10/09 03:53:49;;;;;;;0.00;0.00;;;;;;;;;;1740484;28;20276;-71
2022/10/09 03:54:40;;;;;;;0.00;0.00;;;;;;;;;;1740523;28;20655;-71
2022/10/09 03:55:32;;;;;;;0.00;0.00;;;;;;;;;;1741082;28;20534;-71
2022/10/09 03:56:23;;;;;;;0.00;0.00;;;;;;;;;;1740428;28;20298;-71
2022/10/09 03:57:15;;;;;;;0.00;0.00;;;;;;;;;;1740614;28;20207;-71
2022/10/09 03:58:06;;;;;;;0.00;0.00;;;;;;;;;;1740212;28;20491;-71
2022/10/09 03:58:59;;;;;;;0.00;0.00;;;;;;;;;;1740589;28;20203;-71
2022/10/09 03:59:50;;;;;;;0.00;0.00;;;;;;;;;;1740016;28;20253;-71
2022/10/09 04:00:42;;;;;;;0.00;0.00;;;;;;;;;;1740877;28;20202;-71
2022/10/09 04:01:34;;;;;;;0.00;0.00;;;;;;;;;;1740160;28;20222;-70
2022/10/09 04:02:27;;;;;;;0.00;0.00;;;;;;;;;;1740359;28;20235;-70
2022/10/09 04:03:19;;;;;;;0.00;0.00;;;;;;;;;;1740334;28;20222;-70
2022/10/09 04:04:10;;;;;;;0.00;0.00;;;;;;;;;;1740300;28;20290;-70
2022/10/09 04:05:04;;;;;;;0.00;0.00;;;;;;;;;;1739753;28;20202;-70
2022/10/09 04:05:55;;;;;;;0.00;0.00;;;;;;;;;;1739863;28;20250;-70
2022/10/09 04:06:47;;;;;;;0.00;0.00;;;;;;;;;;1740165;28;20217;-71
2022/10/09 04:07:38;;;;;;;0.00;0.00;;;;;;;;;;1740408;28;20600;-71
2022/10/09 04:08:30;;;;;;;0.00;0.00;;;;;;;;;;1740292;28;20689;-71
2022/10/09 04:09:21;;;;;;;0.00;0.00;;;;;;;;;;1740328;28;20337;-71
2022/10/09 04:10:13;;;;;;;0.00;0.00;;;;;;;;;;1740728;28;20343;-71
2022/10/09 04:11:04;;;;;;;0.00;0.00;;;;;;;;;;1740561;28;20234;-71
2022/10/09 04:11:56;;;;;;;0.00;0.00;;;;;;;;;;1740018;28;20264;-71
2022/10/09 04:12:47;;;;;;;0.00;0.00;;;;;;;;;;1740448;28;20210;-71
2022/10/09 04:13:39;;;;;;;0.00;0.00;;;;;;;;;;1740512;28;20511;-71
2022/10/09 04:14:30;;;;;;;0.00;0.00;;;;;;;;;;1739823;28;20658;-71
2022/10/09 04:15:22;;;;;;;0.00;0.00;;;;;;;;;;1740776;28;20263;-71
2022/10/09 04:16:14;;;;;;;0.00;0.00;;;;;;;;;;1740140;28;20227;-71
2022/10/09 04:17:06;;;;;;;0.00;0.00;;;;;;;;;;1740063;28;20825;-71
2022/10/09 04:17:58;;;;;;;0.00;0.00;;;;;;;;;;1740298;28;20768;-71
2022/10/09 04:18:50;;;;;;;0.00;0.00;;;;;;;;;;1740572;28;20230;-71
2022/10/09 04:19:41;;;;;;;0.00;0.00;;;;;;;;;;1739852;28;20243;-71
2022/10/09 04:20:33;;;;;;;0.00;0.00;;;;;;;;;;1740930;28;20574;-71
2022/10/09 04:21:24;;;;;;;0.00;0.00;;;;;;;;;;1740133;28;20708;-70
2022/10/09 04:22:16;;;;;;;0.00;0.00;;;;;;;;;;1740280;28;20198;-70
2022/10/09 04:23:07;;;;;;;0.00;0.00;;;;;;;;;;1740049;28;20213;-70
2022/10/09 04:24:02;;;;;;;0.00;0.00;;;;;;;;;;1740376;28;20217;-70
2022/10/09 04:24:53;;;;;;;0.00;0.00;;;;;;;;;;1739965;28;20215;-70
2022/10/09 04:25:45;;;;;;;0.00;0.00;;;;;;;;;;1740666;28;20441;-70
2022/10/09 04:26:36;;;;;;;0.00;0.00;;;;;;;;;;1740211;28;20241;-71
2022/10/09 04:27:29;;;;;;;0.00;0.00;;;;;;;;;;1740219;28;20195;-71
2022/10/09 04:28:20;;;;;;;0.00;0.00;;;;;;;;;;1740234;28;20202;-71
2022/10/09 04:29:12;;;;;;;0.00;0.00;;;;;;;;;;1740406;28;20310;-71
2022/10/09 04:30:04;;;;;;;0.00;0.00;;;;;;;;;;1740114;28;20237;-71
2022/10/09 04:30:56;;;;;;;0.00;0.00;;;;;;;;;;1740566;28;20264;-69
2022/10/09 04:31:48;;;;;;;0.00;0.00;;;;;;;;;;1745861;28;20202;-70
2022/10/09 04:32:40;;;;;;;0.00;0.00;;;;;;;;;;1747289;28;20198;-70
2022/10/09 04:33:32;;;;;;;0.00;0.00;;;;;;;;;;1746973;28;20240;-69
2022/10/09 04:34:24;;;;;;;0.10;0.10;;;;;;;;;;1747023;28;20233;-70
2022/10/09 04:35:15;;;;;;;0.00;0.00;;;;;;;;;;1740432;28;20249;-70
2022/10/09 04:36:08;;;;;;;0.00;0.00;;;;;;;;;;1740037;28;20229;-70
2022/10/09 04:36:59;;;;;;;0.00;0.00;;;;;;;;;;1740167;28;20247;-70
2022/10/09 04:37:51;;;;;;;0.00;0.00;;;;;;;;;;1739939;28;20223;-70
2022/10/09 04:38:42;;;;;;;0.00;0.00;;;;;;;;;;1740365;28;20213;-70
2022/10/09 04:39:34;;;;;;;0.00;0.00;;;;;;;;;;1740023;28;20191;-70
2022/10/09 04:40:25;;;;;;;0.00;0.00;;;;;;;;;;1740437;28;20538;-70
2022/10/09 04:41:17;;;;;;;0.00;0.00;;;;;;;;;;1740172;28;20199;-70
2022/10/09 04:42:08;;;;;;;0.00;0.00;;;;;;;;;;1740075;28;20257;-70
2022/10/09 04:43:00;;;;;;;0.00;0.00;;;;;;;;;;1740423;28;20415;-70
2022/10/09 04:43:54;;;;;;;0.00;0.00;;;;;;;;;;1740492;28;20581;-70
2022/10/09 04:44:46;;;;;;;0.03;0.03;;;;;;;;;;1740073;28;20286;-70
2022/10/09 04:45:38;;;;;;;0.00;0.00;;;;;;;;;;1740631;28;20637;-70
2022/10/09 04:46:30;;;;;;;0.00;0.00;;;;;;;;;;1740105;28;20203;-71
2022/10/09 04:47:21;;;;;;;0.00;0.00;;;;;;;;;;1740539;28;20234;-71
2022/10/09 04:48:13;;;;;;;0.00;0.00;;;;;;;;;;1740021;28;20258;-71
2022/10/09 04:49:06;;;;;;;0.00;0.00;;;;;;;;;;1740370;28;20754;-71
2022/10/09 04:49:58;;;;;;;0.00;0.00;;;;;;;;;;1740063;28;20214;-71
2022/10/09 04:50:49;;;;;;;0.00;0.00;;;;;;;;;;1740368;28;20293;-71
2022/10/09 04:51:41;;;;;;;0.00;0.00;;;;;;;;;;1739841;28;20260;-70
2022/10/09 04:52:32;;;;;;;0.00;0.00;;;;;;;;;;1740004;28;20687;-70
2022/10/09 04:53:24;;;;;;;0.00;0.00;;;;;;;;;;1733025;28;20224;-70
2022/10/09 04:54:16;;;;;;;0.00;0.00;;;;;;;;;;1733575;28;20582;-70
2022/10/09 04:55:08;;;;;;;0.00;0.00;;;;;;;;;;1733346;28;20294;-70
2022/10/09 04:56:01;;;;;;;0.00;0.00;;;;;;;;;;1733299;28;20203;-70
2022/10/09 04:56:53;;;;;;;0.00;0.00;;;;;;;;;;1733113;28;20273;-70
2022/10/09 04:57:44;;;;;;;0.00;0.00;;;;;;;;;;1733306;28;20558;-70
2022/10/09 04:58:39;;;;;;;0.00;0.00;;;;;;;;;;1733161;28;20195;-70
2022/10/09 04:59:30;;;;;;;0.00;0.00;;;;;;;;;;1733133;28;20613;-70
2022/10/09 05:00:22;;;;;;;0.10;0.10;;;;;;;;;;1733413;28;20208;-70
2022/10/09 05:01:14;;;;;;;0.00;0.00;;;;;;;;;;1732762;28;20235;-71
2022/10/09 05:02:06;;;;;;;0.00;0.00;;;;;;;;;;1733253;28;20634;-71
2022/10/09 05:02:57;;;;;;;0.00;0.00;;;;;;;;;;1732991;28;20620;-71
2022/10/09 05:03:49;;;;;;;0.00;0.00;;;;;;;;;;1730697;28;20195;-71
2022/10/09 05:04:42;;;;;;;0.00;0.00;;;;;;;;;;1729260;28;20530;-71
2022/10/09 05:05:34;;;;;;;0.00;0.00;;;;;;;;;;1733653;28;20261;-71
2022/10/09 05:06:26;;;;;;;0.00;0.00;;;;;;;;;;1732926;28;20241;-71
2022/10/09 05:07:18;;;;;;;0.00;0.00;;;;;;;;;;1733172;28;20199;-71
2022/10/09 05:08:09;;;;;;;0.00;0.00;;;;;;;;;;1733255;28;20525;-71
2022/10/09 05:09:01;;;;;;;0.00;0.00;;;;;;;;;;1733189;28;20209;-71
2022/10/09 05:09:52;;;;;;;0.00;0.00;;;;;;;;;;1733292;28;20246;-71
2022/10/09 05:10:44;;;;;;;0.00;0.00;;;;;;;;;;1733801;28;20200;-71
2022/10/09 05:11:35;;;;;;;0.00;0.00;;;;;;;;;;1732870;28;20354;-70
2022/10/09 05:12:27;;;;;;;0.00;0.00;;;;;;;;;;1733197;28;20241;-70
2022/10/09 05:13:18;;;;;;;0.00;0.00;;;;;;;;;;1732816;28;20238;-70
2022/10/09 05:14:10;;;;;;;0.00;0.00;;;;;;;;;;1740000;28;20273;-70
2022/10/09 05:15:02;;;;;;;0.00;0.00;;;;;;;;;;1739903;28;20234;-70